createdAt,value
2022-11-28T00:00:05.485Z,88.74
2022-11-28T00:02:32.087Z,91.36
2022-11-28T00:04:58.847Z,92.84
2022-11-28T00:07:25.567Z,92.38
2022-11-28T00:09:52.895Z,92.50
2022-11-28T00:12:19.648Z,94.11
2022-11-28T00:14:46.118Z,95.17
2022-11-28T00:17:12.573Z,96.47
2022-11-28T00:19:39.021Z,97.82
2022-11-28T00:22:05.778Z,97.83
2022-11-28T00:24:32.229Z,96.62
2022-11-28T00:26:58.710Z,93.82
2022-11-28T00:29:25.162Z,90.43
2022-11-28T00:31:51.873Z,88.80
2022-11-28T00:34:18.392Z,88.16
2022-11-28T00:36:45.848Z,88.12
2022-11-28T00:39:12.851Z,88.34
2022-11-28T00:41:39.367Z,89.80
2022-11-28T00:44:05.928Z,90.16
2022-11-28T00:46:32.377Z,89.43
2022-11-28T00:48:59.296Z,90.13
2022-11-28T00:51:27.358Z,90.16
2022-11-28T00:53:54.587Z,90.45
2022-11-28T00:56:29.113Z,91.06
2022-11-28T00:58:56.398Z,90.45
2022-11-28T01:01:27.933Z,90.23
2022-11-28T01:03:55.506Z,90.12
2022-11-28T01:06:23.494Z,90.50
2022-11-28T01:08:50.222Z,90.95
2022-11-28T01:11:16.713Z,90.21
2022-11-28T01:13:43.227Z,90.03
2022-11-28T01:16:09.912Z,89.77
2022-11-28T01:18:37.050Z,89.38
2022-11-28T01:21:03.949Z,90.53
2022-11-28T01:23:30.432Z,91.32
2022-11-28T01:25:56.894Z,91.71
2022-11-28T01:28:23.631Z,91.48
2022-11-28T01:30:50.129Z,90.89
2022-11-28T01:33:17.161Z,91.07
2022-11-28T01:35:43.622Z,90.73
2022-11-28T01:38:10.103Z,90.60
2022-11-28T01:40:36.545Z,88.83
2022-11-28T01:43:03.201Z,87.44
2022-11-28T01:45:31.663Z,87.75
2022-11-28T01:48:00.172Z,88.50
2022-11-28T01:50:26.891Z,88.53
2022-11-28T01:52:54.859Z,88.53
2022-11-28T01:55:22.772Z,89.46
2022-11-28T01:57:49.225Z,89.45
2022-11-28T02:00:18.740Z,90.02
2022-11-28T02:02:48.311Z,89.71
2022-11-28T02:05:15.374Z,89.80
2022-11-28T02:07:41.925Z,90.30
2022-11-28T02:10:09.129Z,90.91
2022-11-28T02:12:53.805Z,90.98
2022-11-28T02:15:35.265Z,91.34
2022-11-28T02:18:06.753Z,91.45
2022-11-28T02:20:36.092Z,91.55
2022-11-28T02:23:23.841Z,92.25
2022-11-28T02:26:03.907Z,92.83
2022-11-28T02:28:48.979Z,92.96
2022-11-28T02:31:38.670Z,93.03
2022-11-28T02:34:29.753Z,93.47
2022-11-28T02:37:11.213Z,92.98
2022-11-28T02:40:02.511Z,91.78
2022-11-28T02:42:34.428Z,91.64
2022-11-28T02:45:13.628Z,91.07
2022-11-28T02:47:45.394Z,90.97
2022-11-28T02:50:26.870Z,90.94
2022-11-28T02:52:56.577Z,91.24
2022-11-28T02:55:23.688Z,90.89
2022-11-28T02:57:51.576Z,91.08
2022-11-28T03:00:25.074Z,90.85
2022-11-28T03:03:17.607Z,90.90
2022-11-28T03:06:05.538Z,91.00
2022-11-28T03:08:48.118Z,91.76
2022-11-28T03:11:49.805Z,90.81
2022-11-28T03:14:32.770Z,91.69
2022-11-28T03:17:11.498Z,91.52
2022-11-28T03:19:40.251Z,91.56
2022-11-28T03:23:04.017Z,91.51
2022-11-28T03:26:08.061Z,92.26
2022-11-28T03:28:43.391Z,91.93
2022-11-28T03:31:31.332Z,92.48
2022-11-28T03:33:58.538Z,91.96
2022-11-28T03:36:32.749Z,91.86
2022-11-28T03:39:05.279Z,91.99
2022-11-28T03:41:37.991Z,92.39
2022-11-28T03:44:09.670Z,91.71
2022-11-28T03:46:38.434Z,91.73
2022-11-28T03:49:05.006Z,90.67
2022-11-28T03:51:58.828Z,90.90
2022-11-28T03:54:36.505Z,91.29
2022-11-28T03:57:06.321Z,90.68
2022-11-28T03:59:41.697Z,90.59
2022-11-28T04:02:27.422Z,90.47
2022-11-28T04:05:08.223Z,91.01
2022-11-28T04:07:56.349Z,90.66
2022-11-28T04:10:28.571Z,90.49
2022-11-28T04:12:59.539Z,90.94
2022-11-28T04:15:41.426Z,90.36
2022-11-28T04:18:10.798Z,90.49
2022-11-28T04:21:05.981Z,91.00
2022-11-28T04:23:32.443Z,91.52
2022-11-28T04:26:15.786Z,91.02
2022-11-28T04:28:42.271Z,90.32
2022-11-28T04:31:08.823Z,90.46
2022-11-28T04:33:37.472Z,90.51
2022-11-28T04:36:04.124Z,89.70
2022-11-28T04:38:30.598Z,89.92
2022-11-28T04:41:06.708Z,89.88
2022-11-28T04:43:40.104Z,89.54
2022-11-28T04:46:12.070Z,89.77
2022-11-28T04:48:38.557Z,89.21
2022-11-28T04:51:19.545Z,89.49
2022-11-28T04:54:00.350Z,90.02
2022-11-28T04:56:47.429Z,90.33
2022-11-28T04:59:13.950Z,89.75
2022-11-28T05:01:41.270Z,89.41
2022-11-28T05:04:07.850Z,89.98
2022-11-28T05:06:35.284Z,89.87
2022-11-28T05:09:01.817Z,90.23
2022-11-28T05:11:28.390Z,90.00
2022-11-28T05:13:55.002Z,89.78
2022-11-28T05:16:21.597Z,89.78
2022-11-28T05:18:48.307Z,90.10
2022-11-28T05:21:14.775Z,89.67
2022-11-28T05:23:43.132Z,89.22
2022-11-28T05:26:18.060Z,88.95
2022-11-28T05:28:45.841Z,88.58
2022-11-28T05:31:12.579Z,88.12
2022-11-28T05:33:39.081Z,87.84
2022-11-28T05:36:12.392Z,87.44
2022-11-28T05:38:39.525Z,86.66
2022-11-28T05:41:05.988Z,87.02
2022-11-28T05:43:32.452Z,87.34
2022-11-28T05:45:58.944Z,87.54
2022-11-28T05:48:25.476Z,87.73
2022-11-28T05:50:52.009Z,87.49
2022-11-28T05:53:18.893Z,87.32
2022-11-28T05:55:45.516Z,87.23
2022-11-28T05:58:12.301Z,87.18
2022-11-28T06:00:38.785Z,87.41
2022-11-28T06:03:05.310Z,86.57
2022-11-28T06:05:46.722Z,87.48
2022-11-28T06:08:13.315Z,87.32
2022-11-28T06:10:41.084Z,87.57
2022-11-28T06:13:07.543Z,88.09
2022-11-28T06:15:37.960Z,87.71
2022-11-28T06:18:05.636Z,88.42
2022-11-28T06:20:32.121Z,88.86
2022-11-28T06:22:58.614Z,89.15
2022-11-28T06:25:25.098Z,89.08
2022-11-28T06:27:51.566Z,89.95
2022-11-28T06:30:18.106Z,90.49
2022-11-28T06:32:44.896Z,90.49
2022-11-28T06:35:11.924Z,91.08
2022-11-28T06:37:38.369Z,91.50
2022-11-28T06:40:07.115Z,91.13
2022-11-28T06:42:38.086Z,90.97
2022-11-28T06:45:05.201Z,92.00
2022-11-28T06:47:31.672Z,91.86
2022-11-28T06:49:58.144Z,92.53
2022-11-28T06:52:24.607Z,93.16
2022-11-28T06:54:51.161Z,92.80
2022-11-28T06:57:17.631Z,92.87
2022-11-28T06:59:44.312Z,92.87
2022-11-28T07:02:11.252Z,92.93
2022-11-28T07:04:37.789Z,92.77
2022-11-28T07:07:04.301Z,92.72
2022-11-28T07:09:30.760Z,93.53
2022-11-28T07:11:57.288Z,93.62
2022-11-28T07:14:23.988Z,93.53
2022-11-28T07:16:50.491Z,93.65
2022-11-28T07:19:22.611Z,93.78
2022-11-28T07:21:50.126Z,93.01
2022-11-28T07:24:19.979Z,93.06
2022-11-28T07:26:46.530Z,93.72
2022-11-28T07:29:17.002Z,92.94
2022-11-28T07:31:43.788Z,93.27
2022-11-28T07:34:10.345Z,93.01
2022-11-28T07:36:36.862Z,92.14
2022-11-28T07:39:04.651Z,92.88
2022-11-28T07:41:31.204Z,92.48
2022-11-28T07:43:59.224Z,92.82
2022-11-28T07:46:26.497Z,92.49
2022-11-28T07:48:53.070Z,92.71
2022-11-28T07:51:22.260Z,93.23
2022-11-28T07:53:48.922Z,92.61
2022-11-28T07:56:17.648Z,92.36
2022-11-28T07:58:45.200Z,92.59
2022-11-28T08:01:23.573Z,92.32
2022-11-28T08:03:50.234Z,92.81
2022-11-28T08:06:17.211Z,93.63
2022-11-28T08:08:43.926Z,95.42
2022-11-28T08:11:10.627Z,96.13
2022-11-28T08:13:37.529Z,97.44
2022-11-28T08:16:08.274Z,97.83
2022-11-28T08:18:35.332Z,98.49
2022-11-28T08:21:05.954Z,99.37
2022-11-28T08:23:35.546Z,100.00
2022-11-28T08:26:02.853Z,100.00
2022-11-28T08:28:29.620Z,100.00
2022-11-28T08:30:56.353Z,100.00
2022-11-28T08:33:24.549Z,100.00
2022-11-28T08:35:54.196Z,100.00
2022-11-28T08:38:20.645Z,100.00
2022-11-28T08:40:47.104Z,100.00
2022-11-28T08:43:14.529Z,100.00
2022-11-28T08:45:41.052Z,100.00
2022-11-28T08:48:07.566Z,100.00
2022-11-28T08:50:34.029Z,100.00
2022-11-28T08:53:07.757Z,100.00
2022-11-28T08:55:37.934Z,100.00
2022-11-28T08:58:08.437Z,99.43
2022-11-28T09:00:35.328Z,99.27
2022-11-28T09:03:01.831Z,99.88
2022-11-28T09:05:29.197Z,98.97
2022-11-28T09:07:55.827Z,99.26
2022-11-28T09:10:22.500Z,99.01
2022-11-28T09:12:48.970Z,98.61
2022-11-28T09:15:15.438Z,97.37
2022-11-28T09:17:41.958Z,98.10
2022-11-28T09:20:08.708Z,98.53
2022-11-28T09:22:37.246Z,98.57
2022-11-28T09:25:03.977Z,97.95
2022-11-28T09:27:30.448Z,98.35
2022-11-28T09:29:56.897Z,97.66
2022-11-28T09:32:23.433Z,98.13
2022-11-28T09:34:51.135Z,98.83
2022-11-28T09:37:18.180Z,99.29
2022-11-28T09:40:11.409Z,98.74
2022-11-28T09:42:39.208Z,98.13
2022-11-28T09:45:07.847Z,97.82
2022-11-28T09:47:37.115Z,97.87
2022-11-28T09:50:15.309Z,97.30
2022-11-28T09:53:11.373Z,97.55
2022-11-28T09:55:52.889Z,96.97
2022-11-28T09:58:28.299Z,96.71
2022-11-28T10:01:01.295Z,97.99
2022-11-28T10:04:19.062Z,97.86
2022-11-28T10:07:25.656Z,96.16
2022-11-28T10:10:04.160Z,96.80
2022-11-28T10:12:43.722Z,96.81
2022-11-28T10:15:23.417Z,95.62
2022-11-28T10:18:23.591Z,96.11
2022-11-28T10:20:56.654Z,96.42
2022-11-28T10:23:26.847Z,96.75
2022-11-28T10:26:01.502Z,96.35
2022-11-28T10:28:36.307Z,95.95
2022-11-28T10:31:09.285Z,95.95
2022-11-28T10:33:46.579Z,95.93
2022-11-28T10:36:16.525Z,95.88
2022-11-28T10:38:44.039Z,95.18
2022-11-28T10:41:31.465Z,95.58
2022-11-28T10:44:21.671Z,96.16
2022-11-28T10:46:59.461Z,95.33
2022-11-28T10:49:44.648Z,95.71
2022-11-28T10:52:29.776Z,95.49
2022-11-28T10:55:21.288Z,95.66
2022-11-28T10:58:03.555Z,94.87
2022-11-28T11:00:39.485Z,94.88
2022-11-28T11:03:06.456Z,93.98
2022-11-28T11:05:34.276Z,96.35
2022-11-28T11:08:22.939Z,95.82
2022-11-28T11:11:01.714Z,95.25
2022-11-28T11:13:29.651Z,94.24
2022-11-28T11:16:11.393Z,95.66
2022-11-28T11:18:40.915Z,94.85
2022-11-28T11:21:27.887Z,94.39
2022-11-28T11:24:16.261Z,94.42
2022-11-28T11:26:48.926Z,93.79
2022-11-28T11:29:32.283Z,94.44
2022-11-28T11:32:03.665Z,94.71
2022-11-28T11:34:35.406Z,93.61
2022-11-28T11:37:32.210Z,94.17
2022-11-28T11:39:59.039Z,94.62
2022-11-28T11:42:29.478Z,94.49
2022-11-28T11:44:56.100Z,94.70
2022-11-28T11:47:40.198Z,94.69
2022-11-28T11:50:07.198Z,94.63
2022-11-28T11:52:33.698Z,94.91
2022-11-28T11:55:14.648Z,94.31
2022-11-28T11:57:44.437Z,95.72
2022-11-28T12:00:14.715Z,95.45
2022-11-28T12:02:43.352Z,94.19
2022-11-28T12:05:13.653Z,94.25
2022-11-28T12:07:58.857Z,96.19
2022-11-28T12:10:27.365Z,95.67
2022-11-28T12:12:53.938Z,96.34
2022-11-28T12:15:50.324Z,96.26
2022-11-28T12:18:28.671Z,97.43
2022-11-28T12:20:58.057Z,96.91
2022-11-28T12:23:30.490Z,95.61
2022-11-28T12:26:15.095Z,96.67
2022-11-28T12:28:51.488Z,96.12
2022-11-28T12:31:40.639Z,97.23
2022-11-28T12:34:35.777Z,97.71
2022-11-28T12:37:48.332Z,97.96
2022-11-28T12:40:30.145Z,98.03
2022-11-28T12:42:56.505Z,98.54
2022-11-28T12:45:47.551Z,97.96
2022-11-28T12:48:32.053Z,97.54
2022-11-28T12:51:36.585Z,98.19
2022-11-28T12:54:28.612Z,99.11
2022-11-28T12:57:05.442Z,98.49
2022-11-28T12:59:33.917Z,99.39
2022-11-28T13:02:03.982Z,98.92
2022-11-28T13:05:10.380Z,98.38
2022-11-28T13:07:39.524Z,98.94
2022-11-28T13:10:18.051Z,98.99
2022-11-28T13:13:02.709Z,99.09
2022-11-28T13:15:49.005Z,98.42
2022-11-28T13:18:34.613Z,97.48
2022-11-28T13:21:06.968Z,98.80
2022-11-28T13:23:55.983Z,99.50
2022-11-28T13:26:47.422Z,99.26
2022-11-28T13:29:35.571Z,97.88
2022-11-28T13:32:19.546Z,97.63
2022-11-28T13:34:46.683Z,100.00
2022-11-28T13:40:17.917Z,99.66
2022-11-28T13:43:07.621Z,99.73
2022-11-28T13:45:44.266Z,100.00
2022-11-28T13:49:05.951Z,100.00
2022-11-28T13:51:30.550Z,100.00
2022-11-28T13:54:16.995Z,100.00
2022-11-28T13:56:47.815Z,100.00
2022-11-28T13:59:19.165Z,100.00
2022-11-28T14:01:46.656Z,99.76
2022-11-28T14:04:13.955Z,100.00
2022-11-28T14:06:45.059Z,100.00
2022-11-28T14:09:11.387Z,100.00
2022-11-28T14:12:09.010Z,100.00
2022-11-28T14:14:42.684Z,99.47
2022-11-28T14:17:28.049Z,100.00
2022-11-28T14:20:16.464Z,100.00
2022-11-28T14:22:49.128Z,100.00
2022-11-28T14:25:31.896Z,100.00
2022-11-28T14:28:02.673Z,100.00
2022-11-28T14:30:37.146Z,100.00
2022-11-28T14:33:15.766Z,100.00
2022-11-28T14:35:54.421Z,100.00
2022-11-28T14:38:30.173Z,100.00
2022-11-28T14:40:56.778Z,100.00
2022-11-28T14:43:23.306Z,100.00
2022-11-28T14:45:50.549Z,100.00
2022-11-28T14:48:19.196Z,100.00
2022-11-28T14:50:47.284Z,100.00
2022-11-28T14:53:35.993Z,100.00
2022-11-28T14:56:14.598Z,100.00
2022-11-28T14:58:48.723Z,100.00
2022-11-28T15:01:19.346Z,100.00
2022-11-28T15:04:17.447Z,100.00
2022-11-28T15:06:43.913Z,100.00
2022-11-28T15:09:42.593Z,100.00
2022-11-28T15:12:24.007Z,100.00
2022-11-28T15:14:52.223Z,100.00
2022-11-28T15:17:19.438Z,100.00
2022-11-28T15:19:47.571Z,100.00
2022-11-28T15:22:46.767Z,100.00
2022-11-28T15:25:20.058Z,100.00
2022-11-28T15:27:46.536Z,100.00
2022-11-28T15:30:20.566Z,100.00
2022-11-28T15:32:47.122Z,100.00
2022-11-28T15:35:15.535Z,100.00
2022-11-28T15:37:53.440Z,100.00
2022-11-28T15:40:29.198Z,100.00
2022-11-28T15:42:55.675Z,100.00
2022-11-28T15:45:29.073Z,100.00
2022-11-28T15:47:56.118Z,100.00
2022-11-28T15:50:27.404Z,100.00
2022-11-28T15:53:17.820Z,100.00
2022-11-28T15:55:44.361Z,100.00
2022-11-28T15:58:28.574Z,100.00
2022-11-28T16:01:06.254Z,100.00
2022-11-28T16:03:35.145Z,100.00
2022-11-28T16:06:01.640Z,100.00
2022-11-28T16:08:33.464Z,100.00
2022-11-28T16:11:00.191Z,100.00
2022-11-28T16:13:26.660Z,100.00
2022-11-28T16:15:54.123Z,100.00
2022-11-28T16:18:20.697Z,100.00
2022-11-28T16:20:47.151Z,100.00
2022-11-28T16:23:27.227Z,100.00
2022-11-28T16:26:38.209Z,100.00
2022-11-28T16:29:07.636Z,100.00
2022-11-28T16:31:34.148Z,100.00
2022-11-28T16:34:00.898Z,100.00
2022-11-28T16:36:31.048Z,100.00
2022-11-28T16:39:10.318Z,100.00
2022-11-28T16:41:40.767Z,100.00
2022-11-28T16:44:14.405Z,100.00
2022-11-28T16:46:48.649Z,100.00
2022-11-28T16:49:34.862Z,100.00
2022-11-28T16:52:24.130Z,100.00
2022-11-28T16:54:57.750Z,100.00
2022-11-28T16:57:27.576Z,100.00
2022-11-28T16:59:58.188Z,100.00
2022-11-28T17:02:25.535Z,100.00
2022-11-28T17:04:52.586Z,100.00
2022-11-28T17:07:23.286Z,100.00
2022-11-28T17:09:49.953Z,100.00
2022-11-28T17:12:29.519Z,100.00
2022-11-28T17:14:56.188Z,100.00
2022-11-28T17:17:23.339Z,100.00
2022-11-28T17:19:49.881Z,100.00
2022-11-28T17:22:18.030Z,100.00
2022-11-28T17:24:44.560Z,100.00
2022-11-28T17:27:14.214Z,100.00
2022-11-28T17:29:41.127Z,100.00
2022-11-28T17:32:13.693Z,100.00
2022-11-28T17:34:41.938Z,100.00
2022-11-28T17:37:08.782Z,100.00
2022-11-28T17:39:35.284Z,100.00
2022-11-28T17:42:01.917Z,100.00
2022-11-28T17:44:30.213Z,100.00
2022-11-28T17:46:57.209Z,100.00
2022-11-28T17:49:24.195Z,100.00
2022-11-28T17:51:51.376Z,100.00
2022-11-28T17:54:18.858Z,100.00
2022-11-28T17:56:45.836Z,100.00
2022-11-28T17:59:12.680Z,100.00
2022-11-28T18:01:39.355Z,100.00
2022-11-28T18:04:06.035Z,100.00
2022-11-28T18:06:32.705Z,100.00
2022-11-28T18:08:59.836Z,100.00
2022-11-28T18:11:26.885Z,100.00
2022-11-28T18:13:53.610Z,100.00
2022-11-28T18:16:27.478Z,100.00
2022-11-28T18:18:56.715Z,100.00
2022-11-28T18:21:23.758Z,100.00
2022-11-28T18:23:50.735Z,100.00
2022-11-28T18:26:19.221Z,100.00
2022-11-28T18:28:46.034Z,100.00
2022-11-28T18:31:22.599Z,100.00
2022-11-28T18:33:49.288Z,100.00
2022-11-28T18:36:21.558Z,100.00
2022-11-28T18:38:48.252Z,100.00
2022-11-28T18:41:16.737Z,100.00
2022-11-28T18:43:43.989Z,100.00
2022-11-28T18:46:12.333Z,100.00
2022-11-28T18:48:40.250Z,100.00
2022-11-28T18:51:26.632Z,100.00
2022-11-28T18:54:17.641Z,100.00
2022-11-28T18:56:47.484Z,100.00
2022-11-28T18:59:14.291Z,100.00
2022-11-28T19:01:41.112Z,100.00
2022-11-28T19:04:09.788Z,100.00
2022-11-28T19:06:36.613Z,100.00
2022-11-28T19:09:04.271Z,100.00
2022-11-28T19:11:31.280Z,100.00
2022-11-28T19:13:58.023Z,100.00
2022-11-28T19:16:25.534Z,100.00
2022-11-28T19:18:52.078Z,100.00
2022-11-28T19:21:20.442Z,100.00
2022-11-28T19:23:49.817Z,100.00
2022-11-28T19:26:18.207Z,100.00
2022-11-28T19:28:44.681Z,100.00
2022-11-28T19:31:16.379Z,100.00
2022-11-28T19:33:43.402Z,100.00
2022-11-28T19:36:11.165Z,100.00
2022-11-28T19:38:37.915Z,100.00
2022-11-28T19:41:08.436Z,100.00
2022-11-28T19:43:34.988Z,100.00
2022-11-28T19:46:01.665Z,100.00
2022-11-28T19:48:28.878Z,100.00
2022-11-28T19:50:55.514Z,100.00
2022-11-28T19:53:21.985Z,100.00
2022-11-28T19:55:49.329Z,100.00
2022-11-28T19:58:16.257Z,100.00
2022-11-28T20:00:42.802Z,100.00
2022-11-28T20:03:09.261Z,100.00
2022-11-28T20:05:37.209Z,100.00
2022-11-28T20:08:03.805Z,100.00
2022-11-28T20:10:30.302Z,100.00
2022-11-28T20:12:57.255Z,100.00
2022-11-28T20:15:23.787Z,100.00
2022-11-28T20:17:50.244Z,100.00
2022-11-28T20:20:16.823Z,100.00
2022-11-28T20:22:43.297Z,100.00
2022-11-28T20:25:09.794Z,100.00
2022-11-28T20:27:36.302Z,100.00
2022-11-28T20:30:02.995Z,100.00
2022-11-28T20:32:29.462Z,100.00
2022-11-28T20:34:55.967Z,100.00
2022-11-28T20:37:22.416Z,100.00
2022-11-28T20:39:48.910Z,100.00
2022-11-28T20:42:15.542Z,100.00
2022-11-28T20:44:42.077Z,100.00
2022-11-28T20:47:10.886Z,100.00
2022-11-28T20:49:38.285Z,100.00
2022-11-28T20:52:05.213Z,100.00
2022-11-28T20:54:31.685Z,100.00
2022-11-28T20:57:20.475Z,100.00
2022-11-28T20:59:45.128Z,100.00
2022-11-28T21:02:11.839Z,100.00
2022-11-28T21:04:38.393Z,100.00
2022-11-28T21:07:04.910Z,100.00
2022-11-28T21:09:31.393Z,100.00
2022-11-28T21:11:59.161Z,100.00
2022-11-28T21:14:26.913Z,100.00
2022-11-28T21:16:54.014Z,100.00
2022-11-28T21:19:20.748Z,100.00
2022-11-28T21:21:47.220Z,100.00
2022-11-28T21:24:13.870Z,100.00
2022-11-28T21:26:45.102Z,100.00
2022-11-28T21:29:14.542Z,100.00
2022-11-28T21:31:42.575Z,100.00
2022-11-28T21:34:11.047Z,100.00
2022-11-28T21:36:37.506Z,100.00
2022-11-28T21:39:04.009Z,100.00
2022-11-28T21:41:31.895Z,100.00
2022-11-28T21:43:58.801Z,100.00
2022-11-28T21:46:25.527Z,100.00
2022-11-28T21:48:52.094Z,100.00
2022-11-28T21:51:20.046Z,100.00
2022-11-28T21:53:46.767Z,100.00
2022-11-28T21:56:13.275Z,100.00
2022-11-28T21:58:39.825Z,100.00
2022-11-28T22:01:07.827Z,100.00
2022-11-28T22:03:34.543Z,100.00
2022-11-28T22:06:08.367Z,100.00
2022-11-28T22:08:35.123Z,100.00
2022-11-28T22:11:08.324Z,100.00
2022-11-28T22:13:34.913Z,100.00
2022-11-28T22:16:01.455Z,100.00
2022-11-28T22:18:31.089Z,100.00
2022-11-28T22:21:06.534Z,100.00
2022-11-28T22:23:36.949Z,100.00
2022-11-28T22:26:03.949Z,100.00
2022-11-28T22:28:31.768Z,100.00
2022-11-28T22:30:58.258Z,100.00
2022-11-28T22:33:24.706Z,100.00
2022-11-28T22:35:51.179Z,100.00
2022-11-28T22:38:17.668Z,100.00
2022-11-28T22:40:44.131Z,100.00
2022-11-28T22:43:10.651Z,100.00
2022-11-28T22:45:37.233Z,100.00
2022-11-28T22:48:03.840Z,100.00
2022-11-28T22:50:30.346Z,100.00
2022-11-28T22:52:56.871Z,100.00
2022-11-28T22:55:23.348Z,100.00
2022-11-28T22:57:49.793Z,100.00
2022-11-28T23:00:16.502Z,100.00
2022-11-28T23:02:43.163Z,100.00
2022-11-28T23:05:09.695Z,100.00
2022-11-28T23:07:36.254Z,100.00
2022-11-28T23:10:02.777Z,100.00
2022-11-28T23:12:29.295Z,100.00
2022-11-28T23:14:55.830Z,100.00
2022-11-28T23:17:22.301Z,100.00
2022-11-28T23:19:48.789Z,100.00
2022-11-28T23:22:15.255Z,100.00
2022-11-28T23:24:41.966Z,100.00
2022-11-28T23:27:08.753Z,100.00
2022-11-28T23:29:35.252Z,100.00
2022-11-28T23:32:01.760Z,100.00
2022-11-28T23:34:28.385Z,100.00
2022-11-28T23:36:54.869Z,100.00
2022-11-28T23:39:21.928Z,100.00
2022-11-28T23:41:48.940Z,100.00
2022-11-28T23:44:15.935Z,100.00
2022-11-28T23:46:42.702Z,100.00
2022-11-28T23:49:09.450Z,100.00
2022-11-28T23:51:35.992Z,100.00
2022-11-28T23:54:02.530Z,100.00
2022-11-28T23:56:31.158Z,100.00
2022-11-28T23:58:57.713Z,100.00
